createdAt,value
2017-05-27T00:00:02.997Z,23.61
2017-05-27T00:00:21.880Z,23.67
2017-05-27T00:00:41.885Z,23.63
2017-05-27T00:01:01.459Z,23.68
2017-05-27T00:01:20.912Z,23.67
2017-05-27T00:01:40.898Z,23.65
2017-05-27T00:02:00.965Z,23.48
2017-05-27T00:02:20.975Z,23.63
2017-05-27T00:02:40.983Z,23.52
2017-05-27T00:03:00.439Z,23.52
2017-05-27T00:03:19.854Z,23.55
2017-05-27T00:03:39.352Z,23.55
2017-05-27T00:03:59.369Z,23.45
2017-05-27T00:04:18.777Z,23.56
2017-05-27T00:04:38.796Z,23.53
2017-05-27T00:04:58.811Z,23.56
2017-05-27T00:05:18.745Z,23.52
2017-05-27T00:05:38.218Z,23.55
2017-05-27T00:05:58.388Z,23.5
2017-05-27T00:06:17.778Z,23.5
2017-05-27T00:06:37.770Z,23.49
2017-05-27T00:06:57.184Z,23.45
2017-05-27T00:07:16.051Z,23.5
2017-05-27T00:07:35.458Z,23.49
2017-05-27T00:07:55.416Z,23.56
2017-05-27T00:08:13.713Z,23.45
2017-05-27T00:08:33.686Z,23.53
2017-05-27T00:08:53.670Z,23.48
2017-05-27T00:09:13.101Z,23.46
2017-05-27T00:09:32.514Z,23.5
2017-05-27T00:09:51.992Z,23.55
2017-05-27T00:10:10.871Z,23.5
2017-05-27T00:10:30.841Z,23.43
2017-05-27T00:10:50.806Z,23.49
2017-05-27T00:11:10.268Z,23.43
2017-05-27T00:11:29.793Z,23.48
2017-05-27T00:11:49.748Z,23.43
2017-05-27T00:12:08.653Z,23.43
2017-05-27T00:12:28.065Z,23.46
2017-05-27T00:12:48.108Z,23.4
2017-05-27T00:13:07.510Z,23.5
2017-05-27T00:13:26.353Z,23.55
2017-05-27T00:13:45.754Z,23.45
2017-05-27T00:14:05.733Z,23.5
2017-05-27T00:14:25.176Z,23.53
2017-05-27T00:14:45.173Z,23.46
2017-05-27T00:15:05.126Z,23.55
2017-05-27T00:15:25.080Z,23.49
2017-05-27T00:15:44.574Z,23.46
2017-05-27T00:16:03.991Z,23.4
2017-05-27T00:16:22.828Z,23.42
2017-05-27T00:16:41.649Z,23.52
2017-05-27T00:17:01.103Z,23.52
2017-05-27T00:17:19.412Z,23.43
2017-05-27T00:17:38.827Z,23.49
2017-05-27T00:17:58.212Z,23.52
2017-05-27T00:18:17.664Z,23.48
2017-05-27T00:18:36.521Z,23.48
2017-05-27T00:18:55.940Z,23.4
2017-05-27T00:19:15.915Z,23.42
2017-05-27T00:19:35.605Z,23.4
2017-05-27T00:19:55.741Z,23.46
2017-05-27T00:20:15.737Z,23.42
2017-05-27T00:20:35.189Z,23.45
2017-05-27T00:20:55.348Z,23.45
2017-05-27T00:21:15.340Z,23.4
2017-05-27T00:21:34.226Z,23.43
2017-05-27T00:21:54.211Z,23.4
2017-05-27T00:22:13.668Z,23.34
2017-05-27T00:22:33.105Z,23.4
2017-05-27T00:22:53.090Z,23.45
2017-05-27T00:23:12.487Z,23.43
2017-05-27T00:23:32.456Z,23.43
2017-05-27T00:23:51.893Z,23.45
2017-05-27T00:24:11.908Z,23.42
2017-05-27T00:24:31.881Z,23.42
2017-05-27T00:24:51.868Z,23.42
2017-05-27T00:25:11.995Z,23.49
2017-05-27T00:25:30.859Z,23.45
2017-05-27T00:25:50.834Z,23.49
2017-05-27T00:26:10.242Z,23.48
2017-05-27T00:26:29.682Z,23.45
2017-05-27T00:26:49.672Z,23.42
2017-05-27T00:27:09.075Z,23.42
2017-05-27T00:27:29.057Z,23.42
2017-05-27T00:27:49.081Z,23.38
2017-05-27T00:28:09.088Z,23.46
2017-05-27T00:28:29.059Z,23.43
2017-05-27T00:28:49.171Z,23.38
2017-05-27T00:29:09.162Z,23.43
2017-05-27T00:29:28.618Z,23.43
2017-05-27T00:29:48.614Z,23.4
2017-05-27T00:30:07.530Z,23.49
2017-05-27T00:30:27.066Z,23.46
2017-05-27T00:30:47.091Z,23.48
2017-05-27T00:31:07.067Z,23.53
2017-05-27T00:31:27.095Z,23.52
2017-05-27T00:31:47.093Z,23.53
2017-05-27T00:32:07.058Z,23.48
2017-05-27T00:32:25.921Z,23.48
2017-05-27T00:32:45.949Z,23.5
2017-05-27T00:33:05.948Z,23.52
2017-05-27T00:33:26.007Z,23.43
2017-05-27T00:33:44.920Z,23.5
2017-05-27T00:34:07.221Z,23.37
2017-05-27T00:34:27.225Z,23.38
2017-05-27T00:34:46.675Z,23.35
2017-05-27T00:35:06.691Z,23.38
2017-05-27T00:35:26.695Z,23.4
2017-05-27T00:35:46.803Z,23.4
2017-05-27T00:36:06.747Z,23.42
2017-05-27T00:36:26.755Z,23.37
2017-05-27T00:36:46.751Z,23.35
2017-05-27T00:37:06.184Z,23.42
2017-05-27T00:37:25.602Z,23.34
2017-05-27T00:37:45.554Z,23.38
2017-05-27T00:38:05.752Z,23.46
2017-05-27T00:38:24.632Z,23.49
2017-05-27T00:38:44.594Z,23.37
2017-05-27T00:39:04.559Z,23.43
2017-05-27T00:39:23.998Z,23.38
2017-05-27T00:39:43.970Z,23.4
2017-05-27T00:40:03.960Z,23.4
2017-05-27T00:40:23.967Z,23.43
2017-05-27T00:40:43.526Z,23.45
2017-05-27T00:41:03.303Z,23.42
2017-05-27T00:41:23.677Z,23.4
2017-05-27T00:41:42.621Z,23.38
2017-05-27T00:42:02.573Z,23.43
2017-05-27T00:42:22.061Z,23.42
2017-05-27T00:42:41.578Z,23.46
2017-05-27T00:43:02.306Z,23.5
2017-05-27T00:43:37.175Z,23.43
2017-05-27T00:44:30.730Z,23.4
2017-05-27T00:44:51.016Z,23.43
2017-05-27T00:45:11.335Z,23.45
2017-05-27T00:45:31.305Z,23.4
2017-05-27T00:45:51.497Z,23.43
2017-05-27T00:46:11.356Z,23.48
2017-05-27T00:46:30.780Z,23.42
2017-05-27T00:46:50.264Z,23.37
2017-05-27T00:47:09.691Z,23.4
2017-05-27T00:47:29.124Z,23.33
2017-05-27T00:47:49.110Z,23.37
2017-05-27T00:48:09.113Z,23.29
2017-05-27T00:48:29.161Z,23.23
2017-05-27T00:48:49.436Z,23.24
2017-05-27T00:49:08.854Z,23.27
2017-05-27T00:49:28.804Z,23.33
2017-05-27T00:49:47.681Z,23.34
2017-05-27T00:50:07.659Z,23.27
2017-05-27T00:50:26.533Z,23.29
2017-05-27T00:50:45.940Z,23.29
2017-05-27T00:51:05.889Z,23.22
2017-05-27T00:51:25.365Z,23.24
2017-05-27T00:51:44.833Z,23.22
2017-05-27T00:52:04.799Z,23.22
2017-05-27T00:52:24.241Z,23.18
2017-05-27T00:52:44.221Z,23.24
2017-05-27T00:53:04.234Z,23.18
2017-05-27T00:53:22.623Z,23.24
2017-05-27T00:53:42.579Z,23.23
2017-05-27T00:54:02.557Z,23.24
2017-05-27T00:54:22.564Z,23.27
2017-05-27T00:54:41.975Z,23.24
2017-05-27T00:55:01.989Z,23.22
2017-05-27T00:55:21.415Z,23.14
2017-05-27T00:55:41.457Z,23.15
2017-05-27T00:56:01.472Z,23.22
2017-05-27T00:56:19.209Z,23.23
2017-05-27T00:56:38.682Z,23.24
2017-05-27T00:56:58.087Z,23.22
2017-05-27T00:57:18.086Z,23.24
2017-05-27T00:57:38.094Z,23.11
2017-05-27T00:57:57.523Z,23.2
2017-05-27T00:58:17.607Z,23.11
2017-05-27T00:58:37.633Z,23.17
2017-05-27T00:58:57.039Z,23.18
2017-05-27T00:59:17.045Z,23.14
2017-05-27T00:59:36.479Z,23.17
2017-05-27T00:59:55.402Z,23.18
2017-05-27T01:00:15.421Z,23.14
2017-05-27T01:00:34.332Z,23.24
2017-05-27T01:00:54.379Z,23.15
2017-05-27T01:01:13.251Z,23.22
2017-05-27T01:01:32.176Z,23.18
2017-05-27T01:01:52.106Z,23.22
2017-05-27T01:02:12.116Z,23.2
2017-05-27T01:02:32.155Z,23.22
2017-05-27T01:02:51.602Z,23.22
2017-05-27T01:03:11.023Z,23.18
2017-05-27T01:03:31.017Z,23.12
2017-05-27T01:03:50.956Z,23.07
2017-05-27T01:04:10.372Z,23.11
2017-05-27T01:04:29.798Z,23.08
2017-05-27T01:04:49.771Z,23.09
2017-05-27T01:05:09.195Z,23.08
2017-05-27T01:05:28.601Z,23.11
2017-05-27T01:05:47.522Z,23.08
2017-05-27T01:06:06.915Z,23.14
2017-05-27T01:06:26.345Z,23.08
2017-05-27T01:06:46.318Z,23.11
2017-05-27T01:07:06.340Z,23.05
2017-05-27T01:07:25.760Z,23.08
2017-05-27T01:07:45.752Z,22.97
2017-05-27T01:08:05.197Z,23.09
2017-05-27T01:08:24.047Z,23.09
2017-05-27T01:08:43.518Z,23.05
2017-05-27T01:09:03.515Z,23.05
2017-05-27T01:09:23.544Z,23.11
2017-05-27T01:09:44.086Z,23.09
2017-05-27T01:10:03.238Z,23.09
2017-05-27T01:10:22.864Z,23.11
2017-05-27T01:10:42.576Z,23.07
2017-05-27T01:11:01.966Z,23.09
2017-05-27T01:11:21.926Z,23.09
2017-05-27T01:11:41.905Z,23.11
2017-05-27T01:12:02.068Z,23.09
2017-05-27T01:12:20.958Z,23.11
2017-05-27T01:12:40.935Z,23.11
2017-05-27T01:12:59.808Z,22.97
2017-05-27T01:13:19.232Z,22.97
2017-05-27T01:13:39.219Z,23.04
2017-05-27T01:13:58.638Z,23.08
2017-05-27T01:14:18.641Z,23.11
2017-05-27T01:14:38.638Z,23.08
2017-05-27T01:14:58.783Z,23.04
2017-05-27T01:15:18.787Z,22.97
2017-05-27T01:15:38.186Z,23.04
2017-05-27T01:15:58.166Z,23.04
2017-05-27T01:16:18.163Z,23.07
2017-05-27T01:16:36.994Z,23.11
2017-05-27T01:16:56.427Z,23.09
2017-05-27T01:17:16.469Z,23.11
2017-05-27T01:17:35.369Z,23.05
2017-05-27T01:17:55.494Z,23.11
2017-05-27T01:18:15.578Z,23.08
2017-05-27T01:18:35.029Z,23
2017-05-27T01:18:55.014Z,22.94
2017-05-27T01:19:15.033Z,23
2017-05-27T01:19:34.473Z,23.08
2017-05-27T01:19:54.458Z,22.9
2017-05-27T01:20:13.339Z,22.97
2017-05-27T01:20:33.347Z,22.97
2017-05-27T01:20:52.747Z,23.02
2017-05-27T01:21:12.796Z,22.97
2017-05-27T01:21:32.828Z,22.94
2017-05-27T01:21:52.219Z,22.9
2017-05-27T01:22:12.171Z,22.94
2017-05-27T01:22:31.010Z,22.84
2017-05-27T01:22:50.959Z,22.79
2017-05-27T01:23:11.054Z,22.79
2017-05-27T01:23:29.869Z,22.78
2017-05-27T01:23:49.885Z,22.79
2017-05-27T01:24:09.866Z,22.75
2017-05-27T01:24:28.746Z,22.71
2017-05-27T01:24:48.162Z,22.72
2017-05-27T01:25:07.016Z,22.68
2017-05-27T01:25:25.855Z,22.65
2017-05-27T01:25:46.063Z,22.67
2017-05-27T01:26:06.042Z,22.69
2017-05-27T01:26:25.583Z,22.63
2017-05-27T01:26:44.435Z,22.72
2017-05-27T01:27:04.433Z,22.74
2017-05-27T01:27:23.856Z,22.74
2017-05-27T01:27:43.799Z,22.72
2017-05-27T01:28:03.744Z,22.84
2017-05-27T01:28:22.634Z,22.78
2017-05-27T01:28:42.709Z,22.77
2017-05-27T01:29:02.720Z,22.75
2017-05-27T01:29:22.141Z,22.72
2017-05-27T01:29:42.146Z,22.71
2017-05-27T01:30:02.097Z,22.71
2017-05-27T01:30:22.075Z,22.75
2017-05-27T01:30:41.547Z,22.71
2017-05-27T01:31:00.997Z,22.79
2017-05-27T01:31:20.437Z,22.77
2017-05-27T01:31:40.443Z,22.77
2017-05-27T01:32:00.427Z,22.72
2017-05-27T01:32:19.797Z,22.71
2017-05-27T01:32:39.767Z,22.75
2017-05-27T01:32:59.732Z,22.68
2017-05-27T01:33:19.701Z,22.77
2017-05-27T01:33:39.133Z,22.75
2017-05-27T01:33:59.240Z,22.79
2017-05-27T01:34:18.168Z,22.74
2017-05-27T01:34:38.158Z,22.79
2017-05-27T01:34:57.611Z,22.86
2017-05-27T01:35:17.587Z,22.87
2017-05-27T01:35:37.548Z,22.9
2017-05-27T01:35:57.274Z,22.94
2017-05-27T01:36:16.904Z,22.84
2017-05-27T01:36:35.926Z,22.89
2017-05-27T01:36:55.392Z,22.87
2017-05-27T01:37:15.395Z,22.9
2017-05-27T01:37:35.391Z,22.89
2017-05-27T01:37:55.379Z,22.93
2017-05-27T01:38:14.799Z,22.92
2017-05-27T01:38:34.231Z,22.92
2017-05-27T01:38:53.638Z,22.84
2017-05-27T01:39:13.608Z,22.84
2017-05-27T01:39:33.039Z,22.9
2017-05-27T01:39:53.023Z,22.9
2017-05-27T01:40:13.539Z,22.9
2017-05-27T01:40:32.424Z,22.84
2017-05-27T01:40:51.317Z,22.81
2017-05-27T01:41:10.218Z,22.87
2017-05-27T01:41:29.673Z,22.9
2017-05-27T01:41:49.674Z,22.71
2017-05-27T01:42:09.102Z,22.81
2017-05-27T01:42:28.021Z,22.87
2017-05-27T01:42:48.577Z,22.83
2017-05-27T01:43:07.988Z,22.79
2017-05-27T01:43:27.942Z,22.79
2017-05-27T01:43:47.386Z,22.86
2017-05-27T01:44:07.363Z,22.75
2017-05-27T01:44:25.688Z,22.86
2017-05-27T01:44:45.686Z,22.86
2017-05-27T01:45:05.140Z,22.75
2017-05-27T01:45:25.139Z,22.75
2017-05-27T01:45:45.857Z,22.77
2017-05-27T01:46:05.237Z,22.77
2017-05-27T01:46:23.533Z,22.75
2017-05-27T01:46:42.944Z,22.77
2017-05-27T01:47:02.904Z,22.74
2017-05-27T01:47:22.893Z,22.62
2017-05-27T01:47:56.198Z,22.69
2017-05-27T01:48:15.632Z,22.69
2017-05-27T01:48:34.112Z,22.67
2017-05-27T01:48:54.121Z,22.6
2017-05-27T01:49:13.586Z,22.6
2017-05-27T01:49:32.543Z,22.59
2017-05-27T01:49:51.953Z,22.53
2017-05-27T01:50:10.806Z,22.59
2017-05-27T01:50:30.247Z,22.63
2017-05-27T01:50:49.663Z,22.56
2017-05-27T01:51:09.098Z,22.57
2017-05-27T01:51:28.552Z,22.56
2017-05-27T01:51:48.682Z,22.62
2017-05-27T01:52:08.714Z,22.67
2017-05-27T01:52:28.671Z,22.62
2017-05-27T01:52:48.696Z,22.72
2017-05-27T01:53:08.696Z,22.68
2017-05-27T01:53:28.732Z,22.67
2017-05-27T01:53:48.691Z,22.63
2017-05-27T01:54:08.216Z,22.57
2017-05-27T01:54:28.169Z,22.56
2017-05-27T01:54:48.203Z,22.57
2017-05-27T01:55:07.588Z,22.59
2017-05-27T01:55:27.033Z,22.57
2017-05-27T01:55:47.078Z,22.59
2017-05-27T01:56:07.059Z,22.54
2017-05-27T01:56:27.031Z,22.57
2017-05-27T01:56:46.973Z,22.59
2017-05-27T01:57:06.946Z,22.67
2017-05-27T01:57:26.383Z,22.72
2017-05-27T01:57:45.796Z,22.74
2017-05-27T01:58:05.372Z,22.72
2017-05-27T01:58:25.643Z,22.72
2017-05-27T01:58:45.227Z,22.75
2017-05-27T01:59:04.231Z,22.83
2017-05-27T01:59:23.654Z,22.81
2017-05-27T01:59:43.623Z,22.83
2017-05-27T02:00:03.614Z,22.86
2017-05-27T02:00:23.575Z,22.79
2017-05-27T02:00:43.037Z,22.87
2017-05-27T02:01:03.019Z,22.78
2017-05-27T02:01:22.976Z,22.71
2017-05-27T02:01:41.852Z,22.75
2017-05-27T02:02:01.290Z,22.77
2017-05-27T02:02:20.719Z,22.75
2017-05-27T02:02:40.879Z,22.78
2017-05-27T02:03:00.870Z,22.75
2017-05-27T02:03:19.176Z,22.72
2017-05-27T02:03:38.641Z,22.68
2017-05-27T02:03:58.647Z,22.67
2017-05-27T02:04:18.668Z,22.65
2017-05-27T02:04:38.627Z,22.69
2017-05-27T02:04:58.590Z,22.71
2017-05-27T02:05:18.042Z,22.6
2017-05-27T02:05:37.452Z,22.62
2017-05-27T02:05:57.416Z,22.68
2017-05-27T02:06:17.368Z,22.62
2017-05-27T02:06:36.804Z,22.57
2017-05-27T02:06:56.781Z,22.62
2017-05-27T02:07:16.756Z,22.59
2017-05-27T02:07:36.759Z,22.54
2017-05-27T02:07:56.186Z,22.6
2017-05-27T02:08:16.313Z,22.57
2017-05-27T02:08:35.192Z,22.56
2017-05-27T02:08:55.243Z,22.53
2017-05-27T02:09:15.207Z,22.56
2017-05-27T02:09:33.571Z,22.53
2017-05-27T02:09:53.577Z,22.59
2017-05-27T02:10:13.010Z,22.56
2017-05-27T02:10:32.959Z,22.53
2017-05-27T02:10:52.923Z,22.6
2017-05-27T02:11:12.881Z,22.59
2017-05-27T02:11:32.873Z,22.62
2017-05-27T02:11:52.838Z,22.52
2017-05-27T02:12:12.814Z,22.46
2017-05-27T02:12:32.234Z,22.52
2017-05-27T02:12:51.673Z,22.44
2017-05-27T02:13:11.672Z,22.49
2017-05-27T02:13:30.528Z,22.52
2017-05-27T02:13:50.491Z,22.53
2017-05-27T02:14:10.470Z,22.54
2017-05-27T02:14:28.883Z,22.49
2017-05-27T02:14:48.411Z,22.38
2017-05-27T02:15:08.444Z,22.42
2017-05-27T02:15:27.879Z,22.42
2017-05-27T02:15:48.013Z,22.46
2017-05-27T02:16:06.859Z,22.46
2017-05-27T02:16:26.865Z,22.38
2017-05-27T02:16:46.820Z,22.42
2017-05-27T02:17:06.253Z,22.47
2017-05-27T02:17:26.330Z,22.49
2017-05-27T02:17:45.830Z,22.47
2017-05-27T02:18:04.116Z,22.42
2017-05-27T02:18:23.492Z,22.59
2017-05-27T02:18:42.978Z,22.52
2017-05-27T02:19:02.990Z,22.52
2017-05-27T02:19:23.004Z,22.42
2017-05-27T02:19:42.416Z,22.46
2017-05-27T02:20:02.543Z,22.49
2017-05-27T02:20:22.082Z,22.41
2017-05-27T02:20:41.848Z,22.42
2017-05-27T02:21:01.316Z,22.49
2017-05-27T02:21:20.775Z,22.35
2017-05-27T02:21:40.772Z,22.42
2017-05-27T02:22:00.913Z,22.35
2017-05-27T02:22:20.385Z,22.35
2017-05-27T02:22:39.829Z,22.39
2017-05-27T02:22:59.821Z,22.39
2017-05-27T02:23:19.824Z,22.47
2017-05-27T02:23:39.839Z,22.42
2017-05-27T02:23:59.850Z,22.41
2017-05-27T02:24:19.794Z,22.49
2017-05-27T02:24:39.174Z,22.35
2017-05-27T02:24:59.155Z,22.42
2017-05-27T02:25:17.989Z,22.38
2017-05-27T02:25:38.015Z,22.37
2017-05-27T02:25:57.520Z,22.24
2017-05-27T02:26:17.475Z,22.26
2017-05-27T02:26:36.337Z,22.22
2017-05-27T02:26:56.359Z,22.24
2017-05-27T02:27:16.388Z,22.3
2017-05-27T02:27:35.783Z,22.26
2017-05-27T02:27:55.210Z,22.19
2017-05-27T02:28:14.609Z,22.15
2017-05-27T02:28:33.471Z,22.17
2017-05-27T02:28:53.461Z,22.17
2017-05-27T02:29:12.897Z,22.22
2017-05-27T02:29:32.283Z,22.17
2017-05-27T02:29:52.235Z,22.1
2017-05-27T02:30:12.194Z,22.1
2017-05-27T02:30:31.639Z,22.13
2017-05-27T02:30:51.921Z,22.16
2017-05-27T02:31:10.785Z,22.05
2017-05-27T02:31:30.204Z,22.15
2017-05-27T02:31:50.198Z,22.05
2017-05-27T02:32:09.628Z,22.16
2017-05-27T02:32:29.077Z,22.15
2017-05-27T02:32:49.092Z,22.12
2017-05-27T02:33:09.071Z,22.16
2017-05-27T02:33:28.487Z,22.16
2017-05-27T02:33:47.358Z,22.15
2017-05-27T02:34:07.358Z,22.16
2017-05-27T02:34:26.773Z,22.15
2017-05-27T02:34:46.750Z,22.2
2017-05-27T02:35:06.187Z,22.16
2017-05-27T02:35:25.612Z,22.13
2017-05-27T02:35:45.004Z,22.08
2017-05-27T02:36:04.987Z,22.16
2017-05-27T02:36:24.426Z,22.12
2017-05-27T02:36:44.416Z,22.13
2017-05-27T02:37:04.356Z,22.13
2017-05-27T02:37:23.244Z,22.13
2017-05-27T02:37:42.671Z,22.16
2017-05-27T02:38:02.689Z,22.13
2017-05-27T02:38:22.134Z,22.19
2017-05-27T02:38:41.533Z,22.15
2017-05-27T02:39:00.915Z,22.19
2017-05-27T02:39:20.379Z,22.15
2017-05-27T02:39:39.937Z,22.22
2017-05-27T02:39:59.465Z,22.23
2017-05-27T02:40:18.937Z,22.16
2017-05-27T02:40:38.911Z,22.16
2017-05-27T02:40:58.316Z,22.16
2017-05-27T02:41:17.732Z,22.19
2017-05-27T02:41:37.196Z,22.16
2017-05-27T02:41:56.646Z,22.17
2017-05-27T02:42:16.044Z,22.16
2017-05-27T02:42:36.052Z,22.22
2017-05-27T02:42:56.068Z,22.13
2017-05-27T02:43:15.486Z,22.07
2017-05-27T02:43:35.461Z,22.15
2017-05-27T02:43:55.427Z,22.13
2017-05-27T02:44:15.420Z,22.12
2017-05-27T02:44:35.440Z,22.15
2017-05-27T02:44:55.415Z,22.16
2017-05-27T02:45:15.427Z,22.16
2017-05-27T02:45:35.426Z,22.15
2017-05-27T02:45:56.092Z,22.13
2017-05-27T02:46:15.510Z,22.19
2017-05-27T02:46:35.469Z,22.16
2017-05-27T02:46:55.458Z,22.16
2017-05-27T02:47:15.466Z,22.19
2017-05-27T02:47:35.490Z,22.17
2017-05-27T02:47:55.461Z,22.13
2017-05-27T02:48:15.473Z,22.22
2017-05-27T02:48:35.455Z,22.2
2017-05-27T02:48:55.451Z,22.16
2017-05-27T02:49:15.411Z,22.17
2017-05-27T02:49:35.413Z,22.16
2017-05-27T02:49:54.839Z,22.16
2017-05-27T02:50:14.858Z,22.17
2017-05-27T02:50:34.288Z,22.19
2017-05-27T02:50:54.310Z,22.17
2017-05-27T02:51:13.762Z,22.13
2017-05-27T02:51:33.168Z,22.2
2017-05-27T02:51:53.131Z,22.13
2017-05-27T02:52:12.522Z,22.17
2017-05-27T02:52:31.968Z,22.22
2017-05-27T02:52:52.019Z,22.17
2017-05-27T02:53:10.888Z,22.13
2017-05-27T02:53:30.306Z,22.15
2017-05-27T02:53:50.285Z,22.13
2017-05-27T02:54:10.270Z,22.13
2017-05-27T02:54:29.730Z,22.16
2017-05-27T02:54:49.153Z,22.17
2017-05-27T02:55:09.128Z,22.22
2017-05-27T02:55:28.546Z,22.15
2017-05-27T02:55:48.663Z,22.08
2017-05-27T02:56:08.062Z,22.16
2017-05-27T02:56:26.959Z,22.17
2017-05-27T02:56:46.394Z,22.12
2017-05-27T02:57:05.836Z,22.16
2017-05-27T02:57:25.756Z,22.1
2017-05-27T02:57:45.731Z,22.19
2017-05-27T02:58:05.715Z,22.13
2017-05-27T02:58:25.708Z,22.12
2017-05-27T02:58:45.694Z,22.02
2017-05-27T02:59:05.114Z,22.15
2017-05-27T02:59:24.539Z,22.04
2017-05-27T02:59:44.527Z,22.08
2017-05-27T03:00:03.945Z,22.1
2017-05-27T03:00:23.378Z,22.15
2017-05-27T03:00:43.348Z,22.19
2017-05-27T03:01:02.750Z,22.15
2017-05-27T03:01:22.198Z,22.15
2017-05-27T03:01:41.601Z,22.04
2017-05-27T03:02:01.009Z,22.01
2017-05-27T03:02:19.886Z,22.1
2017-05-27T03:02:39.859Z,22.05
2017-05-27T03:02:59.811Z,22.08
2017-05-27T03:03:19.202Z,22.07
2017-05-27T03:03:38.756Z,22.05
2017-05-27T03:03:58.744Z,22.04
2017-05-27T03:04:18.740Z,22.05
2017-05-27T03:04:37.580Z,22.1
2017-05-27T03:04:57.550Z,22.05
2017-05-27T03:05:16.950Z,22
2017-05-27T03:05:36.932Z,22.07
2017-05-27T03:05:57.073Z,22.07
2017-05-27T03:06:16.484Z,22.07
2017-05-27T03:06:35.824Z,22.05
2017-05-27T03:06:55.803Z,22.05
2017-05-27T03:07:15.787Z,22.08
2017-05-27T03:07:35.785Z,22.05
2017-05-27T03:07:55.784Z,22.02
2017-05-27T03:08:14.635Z,22.05
2017-05-27T03:08:34.642Z,22.07
2017-05-27T03:08:54.649Z,22.07
2017-05-27T03:09:14.664Z,22.07
2017-05-27T03:09:34.081Z,22.12
2017-05-27T03:09:53.486Z,22.08
2017-05-27T03:10:12.886Z,22.07
2017-05-27T03:10:32.886Z,22.05
2017-05-27T03:10:52.290Z,22.04
2017-05-27T03:11:11.690Z,22.02
2017-05-27T03:11:31.111Z,22
2017-05-27T03:11:51.087Z,22.02
2017-05-27T03:12:12.218Z,22.05
2017-05-27T03:12:31.655Z,22.07
2017-05-27T03:12:51.705Z,22.02
2017-05-27T03:13:11.780Z,21.98
2017-05-27T03:13:31.870Z,21.94
2017-05-27T03:13:51.286Z,21.92
2017-05-27T03:14:11.420Z,21.89
2017-05-27T03:14:30.875Z,21.86
2017-05-27T03:14:49.762Z,21.82
2017-05-27T03:15:08.612Z,21.85
2017-05-27T03:15:29.169Z,21.92
2017-05-27T03:15:49.164Z,21.85
2017-05-27T03:16:09.228Z,21.86
2017-05-27T03:16:28.116Z,21.89
2017-05-27T03:16:48.110Z,21.84
2017-05-27T03:17:08.116Z,21.86
2017-05-27T03:17:27.554Z,21.89
2017-05-27T03:17:47.016Z,21.85
2017-05-27T03:18:06.997Z,21.84
2017-05-27T03:18:26.409Z,21.86
2017-05-27T03:18:46.386Z,21.78
2017-05-27T03:19:06.353Z,21.84
2017-05-27T03:19:26.361Z,21.74
2017-05-27T03:19:45.770Z,21.75
2017-05-27T03:20:05.754Z,21.72
2017-05-27T03:20:25.190Z,21.75
2017-05-27T03:20:44.595Z,21.76
2017-05-27T03:21:03.993Z,21.67
2017-05-27T03:21:23.431Z,21.75
2017-05-27T03:21:43.451Z,21.69
2017-05-27T03:22:03.486Z,21.85
2017-05-27T03:22:22.938Z,21.75
2017-05-27T03:22:42.923Z,21.79
2017-05-27T03:23:02.339Z,21.79
2017-05-27T03:23:21.799Z,21.81
2017-05-27T03:23:41.860Z,21.78
2017-05-27T03:24:01.843Z,21.85
2017-05-27T03:24:21.245Z,21.89
2017-05-27T03:24:40.683Z,21.82
2017-05-27T03:25:00.703Z,21.86
2017-05-27T03:25:20.696Z,21.74
2017-05-27T03:25:40.094Z,21.75
2017-05-27T03:26:00.096Z,21.76
2017-05-27T03:26:20.082Z,21.76
2017-05-27T03:26:39.518Z,21.7
2017-05-27T03:26:59.503Z,21.66
2017-05-27T03:27:18.935Z,21.69
2017-05-27T03:27:38.373Z,21.69
2017-05-27T03:27:58.388Z,21.69
2017-05-27T03:28:18.386Z,21.57
2017-05-27T03:28:37.799Z,21.57
2017-05-27T03:28:57.217Z,21.6
2017-05-27T03:29:16.622Z,21.57
2017-05-27T03:29:36.075Z,21.61
2017-05-27T03:29:55.502Z,21.61
2017-05-27T03:30:15.471Z,21.53
2017-05-27T03:30:34.353Z,21.51
2017-05-27T03:30:54.145Z,21.53
2017-05-27T03:31:14.140Z,21.6
2017-05-27T03:31:34.119Z,21.56
2017-05-27T03:31:53.535Z,21.61
2017-05-27T03:32:13.521Z,21.57
2017-05-27T03:32:32.966Z,21.56
2017-05-27T03:32:52.955Z,21.59
2017-05-27T03:33:12.360Z,21.6
2017-05-27T03:33:31.796Z,21.56
2017-05-27T03:33:51.741Z,21.6
2017-05-27T03:34:11.712Z,21.64
2017-05-27T03:34:31.668Z,21.67
2017-05-27T03:34:51.074Z,21.69
2017-05-27T03:35:09.931Z,21.69
2017-05-27T03:35:29.335Z,21.7
2017-05-27T03:35:48.778Z,21.66
2017-05-27T03:36:08.193Z,21.56
2017-05-27T03:36:27.652Z,21.66
2017-05-27T03:36:47.611Z,21.72
2017-05-27T03:37:06.456Z,21.66
2017-05-27T03:37:25.291Z,21.69
2017-05-27T03:37:44.744Z,21.67
2017-05-27T03:38:03.597Z,21.69
2017-05-27T03:38:22.454Z,21.69
2017-05-27T03:38:42.395Z,21.63
2017-05-27T03:39:01.836Z,21.66
2017-05-27T03:39:20.711Z,21.69
2017-05-27T03:39:40.134Z,21.67
2017-05-27T03:40:00.131Z,21.69
2017-05-27T03:40:19.540Z,21.63
2017-05-27T03:40:38.943Z,21.76
2017-05-27T03:40:58.363Z,21.72
2017-05-27T03:41:18.351Z,21.75
2017-05-27T03:41:37.260Z,21.81
2017-05-27T03:41:57.233Z,21.81
2017-05-27T03:42:17.234Z,21.74
2017-05-27T03:42:36.109Z,21.81
2017-05-27T03:42:55.537Z,21.79
2017-05-27T03:43:14.964Z,21.75
2017-05-27T03:43:34.413Z,21.84
2017-05-27T03:43:53.856Z,21.86
2017-05-27T03:44:13.856Z,21.79
2017-05-27T03:44:33.304Z,21.76
2017-05-27T03:44:53.266Z,21.75
2017-05-27T03:45:12.681Z,21.78
2017-05-27T03:45:32.717Z,21.76
2017-05-27T03:45:53.080Z,21.75
2017-05-27T03:46:11.925Z,21.84
2017-05-27T03:46:31.378Z,21.92
2017-05-27T03:46:51.429Z,21.84
2017-05-27T03:47:10.894Z,21.91
2017-05-27T03:47:30.843Z,21.85
2017-05-27T03:47:50.244Z,21.91
2017-05-27T03:48:10.226Z,21.85
2017-05-27T03:48:29.612Z,21.82
2017-05-27T03:48:48.980Z,21.85
2017-05-27T03:49:08.975Z,21.78
2017-05-27T03:49:28.384Z,21.79
2017-05-27T03:49:47.813Z,21.85
2017-05-27T03:50:07.804Z,21.75
2017-05-27T03:50:27.239Z,21.91
2017-05-27T03:50:47.215Z,21.89
2017-05-27T03:51:07.254Z,21.75
2017-05-27T03:51:27.203Z,21.85
2017-05-27T03:51:47.164Z,21.85
2017-05-27T03:52:07.123Z,21.86
2017-05-27T03:52:26.542Z,21.84
2017-05-27T03:52:45.970Z,21.91
2017-05-27T03:53:05.387Z,21.91
2017-05-27T03:53:25.506Z,21.84
2017-05-27T03:53:45.529Z,21.97
2017-05-27T03:54:05.528Z,21.86
2017-05-27T03:54:24.957Z,21.95
2017-05-27T03:54:44.927Z,21.98
2017-05-27T03:55:04.352Z,21.95
2017-05-27T03:55:23.284Z,21.94
2017-05-27T03:55:43.284Z,21.95
2017-05-27T03:56:03.267Z,21.91
2017-05-27T03:56:22.705Z,21.98
2017-05-27T03:56:42.679Z,21.98
2017-05-27T03:57:02.144Z,21.97
2017-05-27T03:57:22.189Z,21.86
2017-05-27T03:57:42.167Z,21.91
2017-05-27T03:58:01.626Z,21.98
2017-05-27T03:58:20.478Z,21.92
2017-05-27T03:58:40.465Z,21.95
2017-05-27T03:59:00.453Z,21.94
2017-05-27T03:59:19.320Z,21.91
2017-05-27T03:59:39.294Z,21.98
2017-05-27T03:59:59.258Z,21.98
2017-05-27T04:00:18.664Z,21.97
2017-05-27T04:00:38.627Z,21.91
2017-05-27T04:00:59.961Z,21.95
2017-05-27T04:01:18.852Z,21.94
2017-05-27T04:01:37.708Z,21.89
2017-05-27T04:01:57.116Z,22.01
2017-05-27T04:02:17.119Z,22
2017-05-27T04:02:37.118Z,21.98
2017-05-27T04:02:57.106Z,22.07
2017-05-27T04:03:17.099Z,22.04
2017-05-27T04:03:35.426Z,22.07
2017-05-27T04:03:54.860Z,22.01
2017-05-27T04:04:13.682Z,22.01
2017-05-27T04:04:33.663Z,21.97
2017-05-27T04:04:53.919Z,21.91
2017-05-27T04:05:14.011Z,21.89
2017-05-27T04:05:34.002Z,21.95
2017-05-27T04:05:54.327Z,21.91
2017-05-27T04:06:14.306Z,21.97
2017-05-27T04:06:34.293Z,21.95
2017-05-27T04:06:54.252Z,21.94
2017-05-27T04:07:13.672Z,21.82
2017-05-27T04:07:33.133Z,21.97
2017-05-27T04:07:52.556Z,21.95
2017-05-27T04:08:11.987Z,21.97
2017-05-27T04:08:30.844Z,21.91
2017-05-27T04:08:50.261Z,21.86
2017-05-27T04:09:10.206Z,21.78
2017-05-27T04:09:29.595Z,21.81
2017-05-27T04:09:49.600Z,21.76
2017-05-27T04:10:09.589Z,21.81
2017-05-27T04:10:28.402Z,21.79
2017-05-27T04:10:48.373Z,21.76
2017-05-27T04:11:07.820Z,21.76
2017-05-27T04:11:26.658Z,21.79
2017-05-27T04:11:46.660Z,21.82
2017-05-27T04:12:06.077Z,21.78
2017-05-27T04:12:24.944Z,21.85
2017-05-27T04:12:44.389Z,21.76
2017-05-27T04:13:04.368Z,21.82
2017-05-27T04:13:24.342Z,21.79
2017-05-27T04:13:44.321Z,21.75
2017-05-27T04:14:04.310Z,21.74
2017-05-27T04:14:23.723Z,21.81
2017-05-27T04:14:43.675Z,21.76
2017-05-27T04:15:03.661Z,21.78